Time;durP1;ratioP1;P1;durP2;ratioP2;P2;SDS_P1;SDS_P2;PMS_P1;PMS_P2;Temp;Humidity;BMP_temperature;BMP_pressure;BME280_temperature;BME280_humidity;BME280_pressure;Samples;Min_cycle;Max_cycle;Signal;HPM_P1;HPM_P2
2022/06/06 00:01:58;;;;;;;2.30;2.10;;;18.50;99.90;;;;;;5075190;28;20482;-74
2022/06/06 00:04:26;;;;;;;3.53;1.83;;;18.60;99.90;;;;;;5075013;28;20158;-73
2022/06/06 00:06:53;;;;;;;4.70;2.73;;;18.50;99.90;;;;;;5075463;28;20442;-72
2022/06/06 00:09:19;;;;;;;1.63;1.53;;;18.50;99.90;;;;;;5074994;28;20420;-71
2022/06/06 00:11:45;;;;;;;2.80;1.57;;;18.40;99.90;;;;;;5075054;28;20508;-71
2022/06/06 00:14:12;;;;;;;1.80;1.70;;;18.40;99.90;;;;;;5075150;28;20257;-72
2022/06/06 00:16:38;;;;;;;7.00;2.03;;;18.30;99.90;;;;;;5074708;28;20197;-73
2022/06/06 00:19:04;;;;;;;6.10;3.27;;;18.30;99.90;;;;;;5075239;28;20434;-72
2022/06/06 00:21:30;;;;;;;3.77;3.00;;;18.30;99.90;;;;;;5074812;28;20230;-71
2022/06/06 00:23:59;;;;;;;2.40;2.20;;;18.30;99.90;;;;;;5073556;28;20435;-75
2022/06/06 00:26:26;;;;;;;6.63;2.93;;;18.30;99.90;;;;;;5074509;28;20469;-72
2022/06/06 00:28:52;;;;;;;2.93;1.93;;;18.30;99.90;;;;;;5075124;28;20507;-71
2022/06/06 00:36:47;;;;;;;5.70;1.97;;;18.20;99.90;;;;;;5074553;28;20984;-77
2022/06/06 00:39:15;;;;;;;2.57;2.23;;;18.10;99.90;;;;;;5074491;28;20407;-72
2022/06/06 00:41:44;;;;;;;1.43;1.07;;;18.10;99.90;;;;;;5074515;28;20409;-75
2022/06/06 00:44:12;;;;;;;1.97;1.40;;;18.00;99.90;;;;;;5074384;28;20405;-71
2022/06/06 00:46:46;;;;;;;3.43;2.03;;;17.90;99.90;;;;;;5073306;28;20435;-71
2022/06/06 00:49:40;;;;;;;4.97;2.83;;;17.90;99.90;;;;;;5074255;28;20409;-71
2022/06/06 00:52:11;;;;;;;5.17;2.00;;;17.90;99.90;;;;;;5074285;28;20747;-71
2022/06/06 00:54:38;;;;;;;3.33;1.83;;;17.80;99.90;;;;;;5086477;28;20435;-75
2022/06/06 00:57:09;;;;;;;2.63;2.43;;;17.80;99.90;;;;;;5074043;28;20451;-72
2022/06/06 00:59:37;;;;;;;4.60;1.27;;;17.80;99.90;;;;;;5074125;28;20400;-73
2022/06/06 01:02:03;;;;;;;0.80;0.80;;;17.80;99.90;;;;;;5074067;28;20428;-76
2022/06/06 01:04:31;;;;;;;1.90;1.60;;;17.80;99.90;;;;;;5074953;28;20491;-75
2022/06/06 01:06:57;;;;;;;2.07;1.57;;;17.80;99.90;;;;;;5082678;28;20436;-71
2022/06/06 01:09:24;;;;;;;4.13;3.80;;;17.90;99.90;;;;;;5074018;28;20400;-71
2022/06/06 01:12:02;;;;;;;2.17;1.37;;;17.90;99.90;;;;;;5073806;28;20814;-74
2022/06/06 01:14:37;;;;;;;3.03;2.03;;;17.80;99.90;;;;;;5073681;28;20384;-76
2022/06/06 01:17:12;;;;;;;3.93;1.93;;;17.80;99.90;;;;;;5073890;28;20451;-72
2022/06/06 01:19:41;;;;;;;1.70;1.60;;;17.80;99.90;;;;;;5073730;28;20396;-72
2022/06/06 01:22:09;;;;;;;2.17;1.80;;;17.80;99.90;;;;;;5073687;28;20404;-72
2022/06/06 01:24:58;;;;;;;3.03;2.73;;;17.80;99.90;;;;;;5073369;28;20466;-71
2022/06/06 01:27:46;;;;;;;3.97;1.63;;;17.80;99.90;;;;;;5073563;28;20393;-72
2022/06/06 01:30:15;;;;;;;3.30;1.80;;;17.90;99.90;;;;;;5073593;28;20546;-72
2022/06/06 01:32:44;;;;;;;3.67;3.40;;;17.90;99.90;;;;;;5073466;28;20412;-72
2022/06/06 01:35:11;;;;;;;2.30;1.93;;;17.90;99.90;;;;;;5073045;28;20416;-74
2022/06/06 01:37:39;;;;;;;6.13;1.37;;;17.90;99.90;;;;;;5073384;28;20419;-71
2022/06/06 01:40:12;;;;;;;2.60;1.33;;;17.90;99.90;;;;;;5089102;28;20502;-72
2022/06/06 01:43:00;;;;;;;1.40;1.30;;;17.90;99.90;;;;;;5073472;28;20507;-70
2022/06/06 01:45:35;;;;;;;1.70;1.40;;;17.90;99.90;;;;;;5072849;28;20476;-76
2022/06/06 01:48:08;;;;;;;7.43;1.80;;;17.90;99.90;;;;;;5077788;28;20422;-72
2022/06/06 01:50:37;;;;;;;1.73;1.53;;;17.90;99.90;;;;;;5093316;28;20403;-71
2022/06/06 01:53:07;;;;;;;1.73;1.33;;;17.90;99.90;;;;;;5093355;28;20395;-72
2022/06/06 01:55:37;;;;;;;3.27;1.90;;;17.90;99.90;;;;;;5092927;28;20493;-72
2022/06/06 01:58:06;;;;;;;2.27;0.93;;;17.90;99.90;;;;;;5093138;28;20479;-71
2022/06/06 02:00:35;;;;;;;1.90;1.37;;;17.90;99.90;;;;;;5093124;28;20396;-72
2022/06/06 02:03:00;;;;;;;2.60;1.93;;;17.90;99.90;;;;;;5091764;28;20404;-71
2022/06/06 02:05:27;;;;;;;2.73;2.20;;;17.90;99.90;;;;;;5080365;28;20482;-71
2022/06/06 02:07:52;;;;;;;2.80;1.07;;;17.90;99.90;;;;;;5086434;28;20169;-71
2022/06/06 02:10:20;;;;;;;1.00;0.83;;;17.90;99.90;;;;;;5093231;28;20745;-71
2022/06/06 02:12:46;;;;;;;5.93;1.57;;;17.90;99.90;;;;;;5091791;28;20200;-71
2022/06/06 02:15:16;;;;;;;2.60;1.47;;;17.90;99.90;;;;;;5072303;28;20417;-72
2022/06/06 02:17:42;;;;;;;2.30;1.20;;;17.80;99.90;;;;;;5072460;28;20431;-74
2022/06/06 02:20:09;;;;;;;1.87;1.60;;;17.80;99.90;;;;;;5072516;28;20758;-73
2022/06/06 02:22:35;;;;;;;2.17;1.73;;;17.80;99.90;;;;;;5071203;28;20980;-72
2022/06/06 02:25:02;;;;;;;2.50;2.30;;;17.80;99.90;;;;;;5072066;28;20465;-71
2022/06/06 02:27:28;;;;;;;3.33;1.27;;;17.80;99.90;;;;;;5080916;28;20831;-72
2022/06/06 02:29:54;;;;;;;1.80;1.20;;;17.80;99.90;;;;;;5092632;28;20494;-73
2022/06/06 02:32:19;;;;;;;1.50;1.10;;;17.80;99.90;;;;;;5090651;28;20216;-72
2022/06/06 02:34:45;;;;;;;1.73;1.63;;;17.80;99.90;;;;;;5072172;28;20181;-72
2022/06/06 02:37:10;;;;;;;1.47;1.30;;;17.80;99.90;;;;;;5070896;28;20197;-72
2022/06/06 02:39:36;;;;;;;1.97;1.63;;;17.80;99.90;;;;;;5086201;28;20275;-73
2022/06/06 02:42:02;;;;;;;2.70;1.73;;;17.70;99.90;;;;;;5092431;28;20236;-75
2022/06/06 02:44:28;;;;;;;2.20;1.60;;;17.70;99.90;;;;;;5092223;28;20165;-72
2022/06/06 02:46:53;;;;;;;0.80;0.70;;;17.60;99.90;;;;;;5092208;28;20185;-72
2022/06/06 02:49:19;;;;;;;2.83;2.13;;;17.60;99.90;;;;;;5080815;28;20872;-72
2022/06/06 02:51:44;;;;;;;2.90;1.97;;;17.60;99.90;;;;;;5072197;28;20216;-72
2022/06/06 02:54:10;;;;;;;1.93;1.20;;;17.60;99.90;;;;;;5089977;28;20189;-74
2022/06/06 02:56:36;;;;;;;1.30;1.20;;;17.60;99.90;;;;;;5091908;28;20213;-71
2022/06/06 02:59:05;;;;;;;1.27;0.97;;;17.60;99.90;;;;;;5092261;28;20172;-71
2022/06/06 03:01:32;;;;;;;1.70;1.40;;;17.60;99.90;;;;;;5091499;28;20608;-72
2022/06/06 03:03:58;;;;;;;2.03;0.80;;;17.60;99.90;;;;;;5080704;28;20416;-72
2022/06/06 03:06:28;;;;;;;1.43;1.30;;;17.60;99.90;;;;;;5091990;28;20423;-72
2022/06/06 03:09:05;;;;;;;1.00;0.90;;;17.60;99.90;;;;;;5090210;28;20165;-72
2022/06/06 03:11:52;;;;;;;1.80;1.70;;;17.70;99.90;;;;;;5090755;28;20447;-71
2022/06/06 03:14:21;;;;;;;2.57;1.13;;;17.60;99.90;;;;;;5075238;28;20416;-71
2022/06/06 03:22:49;;;;;;;1.07;0.80;;;17.60;99.90;;;;;;5092053;28;20428;-71
2022/06/06 03:25:38;;;;;;;1.50;0.70;;;17.60;99.90;;;;;;5091803;28;20441;-75
2022/06/06 03:28:45;;;;;;;1.00;0.90;;;17.60;99.90;;;;;;5091949;28;20420;-71
2022/06/06 03:31:27;;;;;;;2.70;1.47;;;17.60;99.90;;;;;;5091979;28;20856;-70
2022/06/06 03:34:01;;;;;;;2.60;1.63;;;17.60;99.90;;;;;;5082914;28;20404;-71
2022/06/06 03:36:38;;;;;;;0.93;0.90;;;17.60;99.90;;;;;;5071327;28;20817;-70
2022/06/06 03:39:21;;;;;;;1.90;1.47;;;17.60;99.90;;;;;;5071711;28;20384;-74
2022/06/06 03:42:06;;;;;;;0.80;0.70;;;17.60;99.90;;;;;;5071685;28;20801;-71
2022/06/06 03:45:08;;;;;;;1.17;0.93;;;17.60;99.90;;;;;;5071686;28;20436;-71
2022/06/06 03:48:03;;;;;;;2.73;1.40;;;17.60;99.90;;;;;;5070177;28;20415;-75
2022/06/06 03:50:48;;;;;;;1.27;1.07;;;17.60;99.90;;;;;;5072016;28;20914;-71
2022/06/06 03:53:46;;;;;;;2.10;1.37;;;17.60;99.90;;;;;;5077008;28;20430;-74
2022/06/06 03:56:25;;;;;;;0.97;0.83;;;17.50;99.90;;;;;;5020292;28;20839;-72
2022/06/06 03:58:53;;;;;;;1.77;1.63;;;17.50;99.90;;;;;;5091586;28;20388;-71
2022/06/06 04:01:22;;;;;;;1.57;1.47;;;17.50;99.90;;;;;;5090385;28;20411;-74
2022/06/06 04:03:49;;;;;;;1.33;0.77;;;17.40;99.90;;;;;;5091695;28;20407;-73
2022/06/06 04:06:17;;;;;;;1.07;0.77;;;17.50;99.90;;;;;;5087056;28;20798;-70
2022/06/06 04:08:43;;;;;;;1.00;0.90;;;17.50;99.90;;;;;;5071330;28;20404;-72
2022/06/06 04:11:17;;;;;;;1.83;1.73;;;17.50;99.90;;;;;;5070165;28;20454;-72
2022/06/06 04:13:53;;;;;;;1.10;0.90;;;17.50;99.90;;;;;;5071501;28;20152;-71
2022/06/06 04:16:37;;;;;;;1.30;1.20;;;17.50;99.90;;;;;;5069786;28;20456;-74
2022/06/06 04:19:40;;;;;;;2.80;0.97;;;17.60;99.90;;;;;;5078905;28;20501;-72
2022/06/06 04:22:29;;;;;;;1.47;1.30;;;17.60;99.90;;;;;;5093662;28;20494;-70
2022/06/06 04:25:19;;;;;;;0.80;0.70;;;17.70;99.90;;;;;;5094748;28;20387;-72
2022/06/06 04:27:44;;;;;;;3.10;1.07;;;17.70;99.90;;;;;;5095026;28;20428;-71
2022/06/06 04:30:32;;;;;;;1.10;1.00;;;17.70;99.90;;;;;;5094941;28;20454;-71
2022/06/06 04:33:20;;;;;;;1.90;0.87;;;17.80;99.90;;;;;;5074652;28;20273;-73
2022/06/06 04:35:46;;;;;;;0.93;0.83;;;17.80;99.90;;;;;;5086707;28;20548;-71
2022/06/06 04:38:38;;;;;;;1.30;0.90;;;17.80;99.90;;;;;;5094687;28;20434;-74
2022/06/06 04:41:11;;;;;;;1.43;0.83;;;17.80;99.90;;;;;;5087920;28;20163;-71
2022/06/06 04:43:56;;;;;;;2.93;1.57;;;17.80;99.90;;;;;;5074452;28;20421;-71
2022/06/06 04:46:47;;;;;;;1.13;1.03;;;17.90;99.90;;;;;;5082212;28;20435;-71
2022/06/06 04:49:13;;;;;;;1.20;1.03;;;17.90;99.90;;;;;;5093302;28;20404;-70
2022/06/06 04:51:41;;;;;;;1.60;1.43;;;17.90;99.90;;;;;;5082709;28;20416;-70
2022/06/06 04:54:13;;;;;;;1.27;1.00;;;17.90;99.90;;;;;;5072906;28;20425;-70
2022/06/06 04:56:39;;;;;;;3.43;1.57;;;18.00;99.90;;;;;;5090497;28;20447;-71
2022/06/06 04:59:09;;;;;;;1.30;1.07;;;18.00;99.90;;;;;;5094386;28;20478;-70
2022/06/06 05:01:36;;;;;;;1.30;1.20;;;18.00;99.90;;;;;;5094451;28;20391;-70
2022/06/06 05:04:01;;;;;;;2.17;1.67;;;18.00;99.90;;;;;;5094480;28;20410;-70
2022/06/06 05:06:32;;;;;;;7.00;1.10;;;18.10;99.90;;;;;;5093866;28;20415;-71
2022/06/06 05:09:16;;;;;;;1.80;1.07;;;18.10;99.90;;;;;;5073990;28;20190;-74
2022/06/06 05:12:23;;;;;;;1.33;1.00;;;18.10;99.90;;;;;;5073928;28;20393;-70
2022/06/06 05:15:28;;;;;;;0.90;0.70;;;18.10;99.90;;;;;;5075176;28;20404;-71
2022/06/06 05:18:17;;;;;;;0.87;0.80;;;18.10;99.90;;;;;;5079516;28;20435;-70
2022/06/06 05:21:10;;;;;;;1.20;0.90;;;18.00;99.90;;;;;;5093984;28;20387;-73
2022/06/06 05:23:49;;;;;;;1.30;1.20;;;17.90;99.90;;;;;;5093907;28;20478;-70
2022/06/06 05:26:47;;;;;;;1.90;1.00;;;17.90;99.90;;;;;;5091196;28;20412;-70
2022/06/06 05:29:34;;;;;;;1.03;0.93;;;17.80;99.90;;;;;;5073653;28;20750;-72
2022/06/06 05:32:11;;;;;;;2.13;0.70;;;17.80;99.90;;;;;;5071782;28;20416;-70
2022/06/06 05:34:56;;;;;;;1.50;1.13;;;17.70;99.90;;;;;;5073456;28;20698;-71
2022/06/06 05:37:50;;;;;;;2.27;0.93;;;17.70;99.90;;;;;;5073344;28;20980;-71
2022/06/06 05:40:36;;;;;;;2.20;0.77;;;17.70;99.90;;;;;;5073765;28;20420;-71
2022/06/06 05:43:20;;;;;;;1.33;0.80;;;17.70;99.90;;;;;;5073316;28;20381;-70
2022/06/06 05:46:11;;;;;;;1.10;1.00;;;17.70;99.90;;;;;;5073093;28;20420;-72
2022/06/06 05:48:39;;;;;;;1.07;0.97;;;17.80;99.90;;;;;;5071934;28;20416;-71
2022/06/06 05:51:25;;;;;;;1.03;0.90;;;17.90;99.90;;;;;;5084963;28;20408;-70
2022/06/06 05:54:19;;;;;;;1.40;1.03;;;18.00;99.90;;;;;;5085332;28;20468;-71
2022/06/06 05:57:24;;;;;;;1.53;1.43;;;18.10;99.90;;;;;;5072897;28;20460;-71
2022/06/06 05:59:53;;;;;;;1.83;1.27;;;18.40;99.90;;;;;;5072920;28;20385;-71
2022/06/06 06:02:46;;;;;;;2.10;1.27;;;18.50;99.90;;;;;;5087558;28;20420;-71
2022/06/06 06:05:43;;;;;;;1.20;1.10;;;18.60;99.90;;;;;;5092866;28;20411;-74
2022/06/06 06:08:44;;;;;;;2.03;1.77;;;18.60;99.90;;;;;;5093147;28;20380;-70
2022/06/06 06:11:50;;;;;;;1.20;0.87;;;18.50;99.90;;;;;;5091726;28;20407;-73
2022/06/06 06:14:15;;;;;;;1.17;1.07;;;18.60;99.90;;;;;;5084163;28;20457;-71
2022/06/06 06:16:49;;;;;;;1.73;1.20;;;18.90;99.90;;;;;;5092679;28;20451;-70
2022/06/06 06:19:18;;;;;;;0.80;0.60;;;19.20;99.90;;;;;;5093058;28;20216;-73
2022/06/06 06:21:48;;;;;;;1.27;1.00;;;19.30;99.90;;;;;;5092900;28;20407;-71
2022/06/06 06:24:24;;;;;;;1.10;1.00;;;19.50;99.90;;;;;;5092561;28;20510;-70
2022/06/06 06:26:51;;;;;;;1.27;1.17;;;19.90;99.90;;;;;;5091991;28;20469;-73
2022/06/06 06:29:17;;;;;;;1.23;0.93;;;20.20;99.90;;;;;;5091404;28;20918;-71
2022/06/06 06:32:20;;;;;;;1.00;0.90;;;20.40;99.90;;;;;;5092573;28;20404;-75
2022/06/06 06:34:57;;;;;;;1.00;0.90;;;20.60;99.90;;;;;;5092450;28;20537;-70
2022/06/06 06:37:29;;;;;;;1.47;0.87;;;20.70;99.90;;;;;;5091218;28;20554;-72
2022/06/06 06:40:31;;;;;;;0.90;0.80;;;20.70;99.90;;;;;;5092469;28;20465;-71
2022/06/06 06:43:15;;;;;;;1.00;0.60;;;20.60;99.90;;;;;;5092355;28;20407;-70
2022/06/06 06:45:58;;;;;;;0.80;0.60;;;20.50;99.90;;;;;;5091536;28;20432;-70
2022/06/06 06:48:31;;;;;;;1.00;0.80;;;20.60;99.90;;;;;;5084680;28;20416;-71
2022/06/06 06:51:21;;;;;;;1.07;0.73;;;21.10;99.90;;;;;;5088333;28;20400;-70
2022/06/06 06:54:08;;;;;;;0.80;0.70;;;21.80;99.90;;;;;;5092274;28;20424;-71
2022/06/06 06:57:01;;;;;;;1.07;0.70;;;22.40;99.90;;;;;;5092036;28;20485;-71
2022/06/06 06:59:41;;;;;;;3.43;1.30;;;23.10;99.90;;;;;;5091094;28;20427;-71
2022/06/06 07:08:34;;;;;;;0.90;0.70;;;25.20;99.90;;;;;;5072090;28;20380;-71
2022/06/06 07:11:30;;;;;;;1.23;1.07;;;26.00;99.90;;;;;;5085124;28;21004;-72
2022/06/06 07:14:17;;;;;;;1.50;1.33;;;26.80;99.80;;;;;;5090810;28;20411;-71
2022/06/06 07:16:43;;;;;;;1.50;0.70;;;27.70;96.40;;;;;;5091565;28;20451;-72
2022/06/06 07:19:20;;;;;;;2.43;1.30;;;28.50;93.20;;;;;;5074474;28;20416;-70
2022/06/06 07:21:47;;;;;;;0.90;0.70;;;29.30;86.20;;;;;;5071896;28;20550;-70
2022/06/06 07:24:17;;;;;;;1.10;0.93;;;30.00;76.20;;;;;;5071662;28;20419;-71
2022/06/06 07:26:44;;;;;;;1.10;1.00;;;30.70;70.00;;;;;;5086480;28;20435;-71
2022/06/06 07:29:15;;;;;;;1.07;0.97;;;31.60;63.40;;;;;;5091641;28;20826;-70
2022/06/06 07:32:01;;;;;;;0.90;0.70;;;32.40;58.90;;;;;;5092050;28;20380;-71
2022/06/06 07:34:32;;;;;;;0.90;0.70;;;33.20;56.60;;;;;;5090853;28;20502;-72
2022/06/06 07:37:06;;;;;;;1.57;1.00;;;34.40;55.30;;;;;;5091634;28;20447;-71
2022/06/06 07:39:47;;;;;;;0.90;0.70;;;35.40;52.10;;;;;;5091671;28;20380;-71
2022/06/06 07:42:15;;;;;;;1.03;0.90;;;36.50;50.00;;;;;;5090220;28;20559;-71
2022/06/06 07:44:45;;;;;;;1.10;1.00;;;36.50;46.70;;;;;;5090080;28;20412;-75
2022/06/06 07:47:39;;;;;;;1.07;0.80;;;35.60;44.60;;;;;;5090090;28;20487;-74
2022/06/06 07:50:22;;;;;;;1.00;0.80;;;35.40;44.30;;;;;;5061678;28;20411;-72
2022/06/06 07:53:10;;;;;;;0.90;0.70;;;36.00;43.10;;;;;;5076237;28;20459;-72
2022/06/06 07:55:43;;;;;;;1.03;0.93;;;37.20;41.50;;;;;;5072495;28;20424;-73
2022/06/06 07:58:31;;;;;;;1.30;1.20;;;38.40;41.10;;;;;;5083744;28;20543;-71
2022/06/06 08:01:12;;;;;;;1.00;0.90;;;39.80;39.90;;;;;;5095312;28;20475;-71
2022/06/06 08:04:07;;;;;;;1.13;1.03;;;40.90;39.20;;;;;;5075093;28;20392;-73
2022/06/06 08:06:55;;;;;;;2.27;0.90;;;41.40;36.90;;;;;;5074544;28;20527;-71
2022/06/06 08:09:48;;;;;;;1.10;0.97;;;41.00;35.00;;;;;;5074779;28;20404;-72
2022/06/06 08:12:32;;;;;;;1.00;0.90;;;40.30;34.30;;;;;;5074733;28;20404;-75
2022/06/06 08:15:22;;;;;;;0.90;0.80;;;39.90;33.90;;;;;;5088928;28;20472;-71
2022/06/06 08:18:11;;;;;;;1.00;0.80;;;40.10;34.80;;;;;;5094954;28;20488;-71
2022/06/06 08:20:54;;;;;;;1.03;0.93;;;41.70;35.10;;;;;;5074818;28;20419;-71
2022/06/06 08:23:21;;;;;;;1.10;0.90;;;43.10;33.40;;;;;;5074789;28;20385;-74
2022/06/06 08:25:49;;;;;;;1.10;1.00;;;44.30;32.00;;;;;;5074281;28;20427;-71
2022/06/06 08:28:16;;;;;;;0.97;0.87;;;44.40;30.80;;;;;;5074478;28;20427;-72
2022/06/06 08:30:44;;;;;;;1.37;0.90;;;44.00;30.70;;;;;;5089482;28;20399;-72
2022/06/06 08:33:10;;;;;;;1.00;0.90;;;43.70;29.80;;;;;;5093257;28;20426;-75
2022/06/06 08:35:59;;;;;;;1.07;0.97;;;43.60;29.50;;;;;;5094167;28;20431;-74
2022/06/06 08:38:41;;;;;;;1.97;1.23;;;43.10;29.30;;;;;;5070513;28;20173;-71
2022/06/06 08:41:37;;;;;;;1.00;0.80;;;42.50;29.20;;;;;;5094605;28;20495;-76
2022/06/06 08:44:06;;;;;;;1.10;1.00;;;41.60;29.00;;;;;;5093276;28;20423;-74
2022/06/06 08:46:46;;;;;;;1.10;1.00;;;40.70;29.30;;;;;;5078311;28;21017;-71
2022/06/06 08:52:56;;;;;;;1.20;0.90;;;41.60;30.00;;;;;;5089710;28;20956;-72
2022/06/06 08:55:49;;;;;;;0.93;0.83;;;43.20;29.20;;;;;;5093789;28;20450;-71
2022/06/06 08:58:51;;;;;;;1.00;0.90;;;42.40;29.40;;;;;;5092939;28;20511;-75
2022/06/06 09:01:49;;;;;;;0.90;0.80;;;42.70;29.20;;;;;;5063612;28;20537;-73
2022/06/06 09:04:15;;;;;;;1.00;0.90;;;43.40;28.90;;;;;;5077301;28;20565;-76
2022/06/06 09:06:58;;;;;;;1.00;0.90;;;44.30;28.50;;;;;;5071510;28;21166;-71
2022/06/06 09:10:10;;;;;;;0.90;0.80;;;44.10;28.10;;;;;;5080142;28;20169;-71
2022/06/06 09:13:04;;;;;;;0.93;0.83;;;42.60;27.90;;;;;;5093781;28;20399;-73
2022/06/06 09:16:13;;;;;;;0.90;0.80;;;40.60;28.20;;;;;;5084520;28;20429;-71
2022/06/06 09:19:19;;;;;;;1.00;0.80;;;38.70;29.10;;;;;;5073436;28;20396;-70
2022/06/06 09:22:07;;;;;;;1.10;0.80;;;36.70;30.00;;;;;;5073359;28;20413;-71
2022/06/06 09:24:57;;;;;;;0.90;0.70;;;34.90;31.60;;;;;;5073468;28;20396;-71
2022/06/06 09:27:53;;;;;;;1.23;0.80;;;33.50;33.00;;;;;;5076278;28;20808;-70
2022/06/06 09:30:37;;;;;;;1.13;0.80;;;32.00;35.60;;;;;;5073259;28;20498;-71
2022/06/06 09:33:21;;;;;;;1.00;0.70;;;30.70;38.10;;;;;;5078262;28;20785;-71
2022/06/06 09:35:58;;;;;;;0.90;0.70;;;29.60;40.30;;;;;;5092947;28;20510;-71
2022/06/06 09:38:37;;;;;;;1.00;0.80;;;28.90;41.90;;;;;;5083360;28;20408;-71
2022/06/06 09:41:22;;;;;;;1.30;0.80;;;28.40;43.60;;;;;;5075943;28;20413;-70
2022/06/06 09:44:04;;;;;;;1.57;0.97;;;28.20;45.50;;;;;;5078971;28;20416;-70
2022/06/06 09:46:47;;;;;;;1.00;0.60;;;28.60;47.30;;;;;;5089171;28;20452;-70
2022/06/06 09:49:19;;;;;;;0.90;0.70;;;29.40;47.70;;;;;;5093122;28;20495;-71
2022/06/06 09:52:17;;;;;;;0.90;0.60;;;29.60;46.70;;;;;;5092018;28;20453;-73
2022/06/06 10:00:57;;;;;;;1.17;0.73;;;29.10;45.90;;;;;;5072738;28;20388;-70
2022/06/06 10:03:43;;;;;;;0.80;0.60;;;28.70;45.90;;;;;;5073975;28;20416;-80
2022/06/06 10:06:34;;;;;;;1.57;0.90;;;28.50;46.30;;;;;;5074364;28;20444;-70
2022/06/06 10:09:37;;;;;;;1.20;0.77;;;28.40;46.80;;;;;;5072691;28;20485;-71
2022/06/06 10:12:17;;;;;;;1.23;1.03;;;28.10;46.90;;;;;;5080895;28;20431;-70
2022/06/06 10:15:15;;;;;;;0.90;0.77;;;27.60;46.70;;;;;;5072136;28;20404;-70
2022/06/06 10:18:17;;;;;;;0.90;0.73;;;27.20;46.90;;;;;;5072086;28;20609;-73
2022/06/06 10:20:58;;;;;;;0.90;0.60;;;26.90;48.00;;;;;;5072613;28;20782;-70
2022/06/06 10:23:45;;;;;;;0.83;0.60;;;26.70;48.50;;;;;;5070901;28;20419;-72
2022/06/06 10:26:23;;;;;;;1.00;0.70;;;26.70;48.50;;;;;;5072011;28;20426;-70
2022/06/06 10:29:26;;;;;;;0.93;0.83;;;26.80;48.90;;;;;;5088162;28;20469;-71
2022/06/06 10:32:10;;;;;;;0.80;0.60;;;27.10;48.90;;;;;;5092762;28;20905;-75
2022/06/06 10:35:14;;;;;;;1.10;0.77;;;27.80;49.60;;;;;;5090899;28;20491;-71
2022/06/06 10:37:46;;;;;;;0.90;0.80;;;28.80;48.80;;;;;;5092135;28;20451;-69
2022/06/06 10:41:04;;;;;;;0.90;0.60;;;29.50;47.00;;;;;;5082384;28;20420;-72
2022/06/06 10:43:39;;;;;;;0.90;0.70;;;29.70;45.90;;;;;;5059677;28;20448;-74
2022/06/06 10:46:10;;;;;;;1.60;1.50;;;29.50;45.50;;;;;;5071240;28;20853;-72
2022/06/06 10:48:55;;;;;;;4.00;3.30;;;29.10;45.70;;;;;;5071764;28;20412;-71
2022/06/06 10:51:41;;;;;;;6.70;3.87;;;28.70;46.30;;;;;;5084152;28;20477;-71
2022/06/06 10:54:28;;;;;;;6.60;4.00;;;28.40;46.60;;;;;;5071847;28;20485;-71
2022/06/06 10:57:28;;;;;;;5.50;2.83;;;28.00;46.90;;;;;;5071666;28;20463;-74
2022/06/06 11:00:07;;;;;;;2.60;1.73;;;27.70;47.40;;;;;;5083705;28;20867;-72
2022/06/06 11:02:32;;;;;;;4.50;2.33;;;27.60;48.00;;;;;;5091225;28;20415;-75
2022/06/06 11:05:21;;;;;;;2.17;1.43;;;27.70;48.70;;;;;;5091553;28;20407;-70
2022/06/06 11:07:57;;;;;;;1.97;1.80;;;28.00;49.10;;;;;;5080370;28;20253;-74
2022/06/06 11:10:34;;;;;;;1.10;1.00;;;28.70;49.00;;;;;;5071792;28;20499;-70
2022/06/06 11:13:26;;;;;;;1.87;1.03;;;29.60;48.00;;;;;;5070340;28;20412;-71
2022/06/06 11:16:01;;;;;;;5.90;5.03;;;31.70;46.70;;;;;;5071445;28;20455;-71
2022/06/06 11:18:48;;;;;;;2.97;2.50;;;34.40;43.40;;;;;;5079593;28;20421;-78
2022/06/06 11:21:25;;;;;;;2.67;2.47;;;37.10;40.20;;;;;;5071629;28;20844;-72
2022/06/06 11:24:13;;;;;;;1.40;1.23;;;39.50;37.80;;;;;;5071586;28;20399;-71
2022/06/06 11:26:51;;;;;;;1.30;1.20;;;41.60;35.50;;;;;;5085194;28;20439;-72
2022/06/06 11:29:35;;;;;;;1.30;1.00;;;43.20;33.10;;;;;;5071155;28;20413;-71
2022/06/06 11:32:27;;;;;;;2.07;1.97;;;44.40;31.40;;;;;;5075594;28;20453;-73
2022/06/06 11:35:08;;;;;;;1.80;1.70;;;45.40;30.20;;;;;;5080941;28;20386;-71
2022/06/06 11:37:51;;;;;;;2.10;1.90;;;44.90;29.00;;;;;;5075244;28;20451;-75
2022/06/06 11:40:54;;;;;;;2.10;1.93;;;45.40;29.10;;;;;;5075406;28;20384;-71
2022/06/06 11:43:22;;;;;;;1.40;1.30;;;46.20;28.60;;;;;;5075659;28;20374;-72
2022/06/06 11:46:08;;;;;;;1.30;1.20;;;46.50;28.00;;;;;;5073745;28;20425;-72
2022/06/06 11:49:01;;;;;;;1.30;1.00;;;46.20;27.40;;;;;;5075283;28;20763;-75
2022/06/06 11:51:44;;;;;;;1.30;1.20;;;46.20;26.80;;;;;;5075193;28;20384;-72
2022/06/06 11:54:27;;;;;;;1.43;1.10;;;46.30;27.00;;;;;;5074953;28;20398;-77
2022/06/06 11:57:25;;;;;;;1.33;1.23;;;46.90;27.20;;;;;;5074945;28;20427;-72
2022/06/06 12:00:17;;;;;;;1.43;1.20;;;46.10;27.20;;;;;;5053857;28;20499;-75
2022/06/06 12:02:56;;;;;;;1.10;1.00;;;46.30;27.40;;;;;;5089097;28;20410;-72
2022/06/06 12:06:00;;;;;;;1.20;1.00;;;45.80;27.00;;;;;;5082903;28;20464;-72
2022/06/06 12:08:48;;;;;;;1.10;1.00;;;44.50;26.70;;;;;;5085477;28;20761;-70
2022/06/06 12:11:38;;;;;;;1.10;1.00;;;42.90;27.10;;;;;;5093729;28;20905;-71
2022/06/06 12:14:10;;;;;;;1.07;0.97;;;41.60;27.50;;;;;;5094946;28;20437;-72
2022/06/06 12:17:01;;;;;;;1.00;0.90;;;41.00;28.00;;;;;;5093903;28;20520;-71
2022/06/06 12:19:48;;;;;;;1.10;1.00;;;40.40;28.50;;;;;;5094324;28;20811;-74
2022/06/06 12:22:40;;;;;;;1.03;0.93;;;40.00;29.20;;;;;;5086962;28;20914;-72
2022/06/06 12:25:12;;;;;;;1.00;0.80;;;39.30;29.70;;;;;;5072859;28;20423;-72
2022/06/06 12:28:15;;;;;;;0.90;0.80;;;39.10;30.40;;;;;;5073195;28;20412;-71
2022/06/06 12:31:10;;;;;;;1.00;0.90;;;39.90;30.60;;;;;;5074392;28;20967;-72
2022/06/06 12:33:58;;;;;;;1.00;0.90;;;41.10;30.30;;;;;;5074467;28;20385;-73
2022/06/06 12:36:44;;;;;;;1.10;0.90;;;42.70;29.90;;;;;;5074192;28;20454;-74
2022/06/06 12:39:51;;;;;;;1.13;1.03;;;43.60;29.70;;;;;;5073028;28;20535;-73
2022/06/06 12:42:37;;;;;;;1.00;0.90;;;45.00;29.40;;;;;;5073070;28;20388;-70
2022/06/06 12:45:09;;;;;;;1.20;1.10;;;46.40;28.70;;;;;;5073568;28;20413;-70
2022/06/06 12:47:46;;;;;;;1.10;1.00;;;47.50;28.30;;;;;;5074219;28;20488;-70
2022/06/06 12:50:12;;;;;;;1.63;1.53;;;47.20;27.40;;;;;;5074019;28;20495;-71
2022/06/06 12:52:59;;;;;;;1.70;1.60;;;46.50;26.90;;;;;;5082165;28;20474;-70
2022/06/06 12:55:43;;;;;;;1.70;1.60;;;45.30;26.40;;;;;;5073759;28;20201;-70
2022/06/06 12:58:29;;;;;;;1.40;1.30;;;44.10;27.00;;;;;;5074006;28;20389;-70
2022/06/06 13:04:21;;;;;;;1.07;0.97;;;44.70;27.60;;;;;;5073783;28;20507;-72
2022/06/06 13:07:04;;;;;;;1.57;1.00;;;45.00;27.20;;;;;;5050326;28;20775;-73
2022/06/06 13:09:51;;;;;;;1.13;1.03;;;45.10;27.50;;;;;;5073719;28;20408;-73
2022/06/06 13:12:28;;;;;;;1.27;1.17;;;44.70;27.30;;;;;;5072313;28;20891;-74
2022/06/06 13:15:09;;;;;;;1.00;0.90;;;43.80;27.00;;;;;;5073027;28;20474;-72
2022/06/06 13:17:50;;;;;;;1.07;0.97;;;42.40;26.60;;;;;;5082137;28;20429;-76
2022/06/06 13:21:00;;;;;;;1.00;0.90;;;41.20;27.20;;;;;;5093817;28;20435;-72
2022/06/06 13:23:46;;;;;;;1.40;0.93;;;40.10;28.10;;;;;;5072856;28;20801;-71
2022/06/06 13:26:36;;;;;;;1.67;1.00;;;39.50;29.00;;;;;;5093368;28;20415;-71
2022/06/06 13:29:05;;;;;;;1.00;0.90;;;38.90;29.50;;;;;;5092894;28;20424;-72
2022/06/06 13:31:54;;;;;;;1.00;0.90;;;38.10;29.40;;;;;;5093345;28;20418;-70
2022/06/06 13:34:50;;;;;;;0.90;0.70;;;37.20;29.60;;;;;;5092904;28;20424;-74
2022/06/06 13:37:54;;;;;;;1.20;0.90;;;36.30;29.80;;;;;;5092092;28;20858;-72
2022/06/06 13:40:48;;;;;;;1.13;0.87;;;35.20;30.60;;;;;;5092058;28;20780;-74
2022/06/06 13:43:20;;;;;;;0.90;0.77;;;34.10;31.20;;;;;;5093294;28;20403;-70
2022/06/06 13:45:55;;;;;;;0.90;0.70;;;33.10;31.80;;;;;;5092828;28;20415;-75
2022/06/06 13:48:53;;;;;;;1.00;0.83;;;32.30;32.40;;;;;;5093142;28;20415;-70
2022/06/06 13:51:34;;;;;;;0.90;0.80;;;31.40;32.90;;;;;;5033949;28;20412;-71
2022/06/06 13:54:07;;;;;;;0.90;0.60;;;30.70;33.30;;;;;;5092667;28;20787;-71
2022/06/06 13:56:50;;;;;;;0.93;0.73;;;30.10;33.90;;;;;;5092707;28;20791;-70
2022/06/06 13:59:38;;;;;;;0.90;0.70;;;29.50;34.70;;;;;;5092751;28;20395;-70
2022/06/06 14:02:20;;;;;;;1.63;1.00;;;29.10;35.10;;;;;;5092351;28;20407;-70
2022/06/06 14:05:02;;;;;;;0.90;0.60;;;28.70;35.40;;;;;;5092622;28;20406;-71
2022/06/06 14:07:40;;;;;;;1.10;0.70;;;28.30;35.90;;;;;;5082398;28;20400;-74
2022/06/06 14:10:09;;;;;;;0.90;0.60;;;28.10;36.90;;;;;;5071641;28;20817;-71
2022/06/06 14:12:44;;;;;;;0.87;0.60;;;27.90;37.50;;;;;;5091857;28;20392;-70
2022/06/06 14:15:14;;;;;;;1.50;1.37;;;27.80;38.20;;;;;;5072230;28;20398;-74
2022/06/06 14:17:51;;;;;;;1.10;0.80;;;27.80;39.10;;;;;;5072356;28;20965;-70
2022/06/06 14:20:50;;;;;;;1.37;0.80;;;27.80;39.00;;;;;;5071046;28;20497;-72
2022/06/06 14:23:37;;;;;;;0.90;0.70;;;27.90;39.00;;;;;;5071015;28;20421;-71
2022/06/06 14:26:06;;;;;;;1.23;0.70;;;28.10;39.30;;;;;;5084802;28;20446;-71